Time;durP1;ratioP1;P1;durP2;ratioP2;P2;SDS_P1;SDS_P2;PMS_P1;PMS_P2;Temp;Humidity;BMP_temperature;BMP_pressure;BME280_temperature;BME280_humidity;BME280_pressure;Samples;Min_cycle;Max_cycle;Signal;HPM_P1;HPM_P2
2022/12/11 00:02:12;;;;;;;26.77;25.10;;;;;;;8.18;87.26;99543.03;5043835;28;20049;-67
2022/12/11 00:04:39;;;;;;;26.03;24.43;;;;;;;8.21;87.24;99542.47;5071679;28;20123;-67
2022/12/11 00:07:06;;;;;;;24.00;22.13;;;;;;;8.18;87.20;99550.56;5065359;28;20044;-67
2022/12/11 00:09:33;;;;;;;27.13;25.53;;;;;;;8.26;87.23;99550.75;5055284;28;20625;-67
2022/12/11 00:12:01;;;;;;;25.20;23.60;;;;;;;8.22;87.29;99538.56;5067993;28;20056;-67
2022/12/11 00:14:28;;;;;;;25.40;23.70;;;;;;;8.04;87.12;99487.25;5071301;28;20457;-68
2022/12/11 00:16:55;;;;;;;24.20;22.80;;;;;;;8.24;87.13;99510.47;5059319;28;20045;-68
2022/12/11 00:19:22;;;;;;;27.23;25.57;;;;;;;8.22;87.31;99499.63;5070892;28;20454;-67
2022/12/11 00:21:49;;;;;;;32.37;29.40;;;;;;;8.17;87.52;99484.91;5056168;28;20064;-67
2022/12/11 00:24:15;;;;;;;26.30;24.60;;;;;;;8.25;87.33;99482.34;5064697;28;20088;-67
2022/12/11 00:26:42;;;;;;;22.67;21.37;;;;;;;8.21;87.89;99475.72;5062123;28;20387;-67
2022/12/11 00:29:13;;;;;;;26.40;24.70;;;;;;;8.13;87.90;99459.63;5057012;28;20163;-67
2022/12/11 00:31:41;;;;;;;25.13;23.43;;;;;;;8.19;88.07;99463.22;5048703;28;20080;-67
2022/12/11 00:34:08;;;;;;;25.17;23.53;;;;;;;8.21;87.87;99452.66;5069560;28;20056;-67
2022/12/11 00:36:35;;;;;;;49.40;46.87;;;;;;;8.20;87.83;99431.50;5066442;28;20055;-68
2022/12/11 00:39:02;;;;;;;33.20;31.23;;;;;;;8.24;88.10;99438.97;5074188;28;20047;-67
2022/12/11 00:41:30;;;;;;;25.70;24.03;;;;;;;8.14;88.45;99425.16;5072906;28;20082;-67
2022/12/11 00:43:57;;;;;;;25.90;24.30;;;;;;;8.17;88.23;99419.03;5064593;28;20052;-67
2022/12/11 00:46:23;;;;;;;23.67;22.27;;;;;;;8.16;88.63;99409.00;5065096;28;20491;-67
2022/12/11 00:48:50;;;;;;;24.53;23.13;;;;;;;8.15;88.64;99382.31;5071182;28;20055;-67
2022/12/11 00:51:18;;;;;;;24.10;22.60;;;;;;;8.22;88.38;99398.66;5075590;28;20049;-66
2022/12/11 00:53:45;;;;;;;25.20;23.60;;;;;;;8.24;88.06;99393.66;5069996;28;20053;-67
2022/12/11 00:56:17;;;;;;;23.57;22.13;;;;;;;8.25;88.28;99389.75;5069570;28;20048;-67
2022/12/11 00:58:46;;;;;;;23.37;22.07;;;;;;;8.28;88.18;99386.38;5052699;28;20071;-67
2022/12/11 01:01:16;;;;;;;23.37;21.90;;;;;;;8.28;88.30;99370.50;5074608;28;20506;-67
2022/12/11 01:03:43;;;;;;;25.80;24.33;;;;;;;8.21;88.26;99341.41;5067981;28;20491;-67
2022/12/11 01:06:17;;;;;;;23.67;22.17;;;;;;;8.26;88.36;99344.13;5042326;28;20049;-67
2022/12/11 01:08:45;;;;;;;24.43;23.13;;;;;;;8.25;88.60;99334.13;5070572;28;20427;-66
2022/12/11 01:11:14;;;;;;;24.37;22.77;;;;;;;8.28;88.59;99328.78;5070245;28;20075;-67
2022/12/11 01:13:41;;;;;;;23.43;22.07;;;;;;;8.25;88.49;99309.09;5069055;28;20059;-66
2022/12/11 01:16:14;;;;;;;25.10;23.47;;;;;;;8.26;88.44;99310.75;5062050;28;20055;-67
2022/12/11 01:18:41;;;;;;;24.27;22.77;;;;;;;8.25;88.71;99307.13;5061553;28;20048;-67
2022/12/11 01:21:10;;;;;;;24.30;22.87;;;;;;;8.29;88.67;99301.81;5059288;28;20052;-67
2022/12/11 01:23:37;;;;;;;24.17;22.43;;;;;;;8.25;88.73;99287.66;5065372;28;20052;-67
2022/12/11 01:26:07;;;;;;;25.20;23.50;;;;;;;8.18;88.74;99251.03;5079473;28;20052;-67
2022/12/11 01:28:34;;;;;;;23.02;21.73;;;;;;;8.12;89.11;99224.41;5080871;28;20075;-67
2022/12/11 01:31:00;;;;;;;38.90;37.13;;;;;;;8.04;89.20;99223.13;5077279;28;20051;-67
2022/12/11 01:33:27;;;;;;;24.77;23.53;;;;;;;8.04;89.32;99225.91;5094080;28;20048;-66
2022/12/11 01:35:54;;;;;;;25.00;23.50;;;;;;;8.09;89.39;99194.41;5064167;28;20061;-67
2022/12/11 01:38:21;;;;;;;24.27;22.57;;;;;;;7.99;89.19;99166.75;5052418;28;20047;-66
2022/12/11 01:40:50;;;;;;;22.60;21.30;;;;;;;8.06;89.49;99172.78;5073750;28;20049;-66
2022/12/11 01:43:17;;;;;;;23.73;22.23;;;;;;;8.02;89.47;99149.47;5074551;28;20048;-66
2022/12/11 01:45:47;;;;;;;24.50;23.10;;;;;;;7.99;89.31;99152.84;5094460;28;20513;-66
2022/12/11 01:48:24;;;;;;;22.92;21.63;;;;;;;7.98;89.38;99159.53;5077360;28;20072;-67
2022/12/11 01:50:58;;;;;;;25.17;23.67;;;;;;;8.03;89.36;99156.69;5074911;28;20060;-66
2022/12/11 01:53:32;;;;;;;22.37;21.03;;;;;;;8.11;89.29;99161.59;5061887;28;20047;-66
2022/12/11 01:56:00;;;;;;;22.80;21.50;;;;;;;8.15;89.31;99157.09;5083687;28;20055;-67
2022/12/11 01:58:56;;;;;;;24.00;22.50;;;;;;;8.16;89.04;99160.69;5076466;28;20404;-66
2022/12/11 02:01:35;;;;;;;24.07;22.67;;;;;;;8.27;88.95;99151.06;5068764;28;20115;-66
2022/12/11 02:04:03;;;;;;;24.23;22.50;;;;;;;8.39;89.24;99142.34;5068248;28;20041;-66
2022/12/11 02:06:42;;;;;;;22.87;21.60;;;;;;;8.35;88.67;99130.13;5073739;28;20048;-66
2022/12/11 02:09:13;;;;;;;25.73;24.47;;;;;;;8.34;88.87;99118.16;5057258;28;20052;-66
2022/12/11 02:11:59;;;;;;;22.93;21.43;;;;;;;8.34;88.58;99131.22;5071134;28;20518;-66
2022/12/11 02:14:47;;;;;;;24.07;22.60;;;;;;;8.35;88.46;99119.00;5072868;28;20045;-66
2022/12/11 02:17:41;;;;;;;24.40;22.67;;;;;;;8.41;88.47;99101.13;5047777;28;20055;-66
2022/12/11 02:20:30;;;;;;;23.20;21.93;;;;;;;8.46;88.63;99087.13;5067758;28;20136;-66
2022/12/11 02:23:12;;;;;;;36.33;34.57;;;;;;;8.46;88.48;99076.84;5053488;28;20060;-66
2022/12/11 02:26:03;;;;;;;21.80;20.50;;;;;;;8.46;88.07;99073.22;5069857;28;20041;-66
2022/12/11 02:28:42;;;;;;;20.70;19.70;;;;;;;8.46;88.30;99064.88;5065717;28;20055;-67
2022/12/11 02:31:37;;;;;;;21.57;20.57;;;;;;;8.46;88.42;99062.91;5072602;28;20487;-67
2022/12/11 02:34:19;;;;;;;20.90;19.90;;;;;;;8.33;88.41;99038.63;5070278;28;20044;-67
2022/12/11 02:36:56;;;;;;;22.77;21.37;;;;;;;8.47;88.26;99047.06;5068100;28;20415;-67
2022/12/11 02:39:25;;;;;;;21.40;20.20;;;;;;;8.51;88.31;99046.16;5070198;28;20411;-66
2022/12/11 02:41:54;;;;;;;20.83;19.83;;;;;;;8.55;88.56;99043.59;5070828;28;20049;-66
2022/12/11 02:44:28;;;;;;;21.77;20.60;;;;;;;8.56;88.20;99042.47;5045890;28;20053;-67
2022/12/11 02:46:57;;;;;;;21.37;20.37;;;;;;;8.55;88.19;99024.13;5069223;28;20421;-67
2022/12/11 02:49:27;;;;;;;20.13;19.23;;;;;;;8.56;88.39;99039.69;5043465;28;20203;-67
2022/12/11 02:51:55;;;;;;;22.05;20.75;;;;;;;8.57;88.18;99044.09;5067917;28;20044;-67
2022/12/11 02:54:27;;;;;;;21.30;20.20;;;;;;;8.56;88.30;99038.84;5064712;28;20040;-66
2022/12/11 02:57:04;;;;;;;21.63;20.63;;;;;;;8.56;88.16;99031.31;5070863;28;20062;-66
2022/12/11 02:59:49;;;;;;;21.30;20.30;;;;;;;8.48;88.14;99023.69;5059936;28;20068;-65
2022/12/11 03:02:17;;;;;;;20.80;19.80;;;;;;;8.48;88.03;99007.81;5071417;28;20459;-66
2022/12/11 03:04:46;;;;;;;20.00;19.20;;;;;;;8.39;88.22;98998.50;5071305;28;20059;-67
2022/12/11 03:07:18;;;;;;;21.00;20.00;;;;;;;8.36;88.37;98984.34;5067113;28;20053;-67
2022/12/11 03:09:47;;;;;;;20.07;19.17;;;;;;;8.33;88.41;98974.66;5064086;28;20067;-66
2022/12/11 03:12:22;;;;;;;21.27;20.37;;;;;;;8.31;88.36;98974.97;5067704;28;20055;-66
2022/12/11 03:14:50;;;;;;;21.10;20.10;;;;;;;8.35;88.59;98980.75;5051167;28;20051;-66
2022/12/11 03:17:21;;;;;;;21.07;19.83;;;;;;;8.35;88.42;98979.94;5068130;28;20060;-65
2022/12/11 03:20:06;;;;;;;23.23;21.87;;;;;;;8.30;88.62;98989.97;5077568;28;20466;-66
2022/12/11 03:22:51;;;;;;;20.23;19.30;;;;;;;8.33;88.60;98977.44;5071997;28;20044;-66
2022/12/11 03:25:43;;;;;;;20.13;19.23;;;;;;;8.42;88.87;98977.59;5064834;28;20511;-66
2022/12/11 03:28:18;;;;;;;20.30;19.30;;;;;;;8.35;88.81;98993.84;5067152;28;20067;-65
2022/12/11 03:30:48;;;;;;;44.63;42.73;;;;;;;8.40;88.96;98977.06;5064990;28;20052;-66
2022/12/11 03:33:28;;;;;;;19.00;18.10;;;;;;;8.42;88.71;98992.34;5067880;28;20139;-67
2022/12/11 03:36:04;;;;;;;19.92;18.83;;;;;;;8.44;88.79;98970.59;5063499;28;20048;-66
2022/12/11 03:38:36;;;;;;;20.40;19.30;;;;;;;8.48;88.79;98960.53;5079529;28;20047;-66
2022/12/11 03:41:06;;;;;;;42.00;40.30;;;;;;;8.50;89.32;98951.84;5064242;28;20052;-66
2022/12/11 03:43:34;;;;;;;19.80;19.00;;;;;;;8.43;88.97;98951.44;5062650;28;20091;-66
2022/12/11 03:46:01;;;;;;;19.00;18.10;;;;;;;8.42;89.03;98947.81;5066944;28;20175;-66
2022/12/11 03:48:32;;;;;;;19.53;18.63;;;;;;;8.44;88.99;98922.47;5060783;28;20054;-66
2022/12/11 03:51:03;;;;;;;20.03;19.07;;;;;;;8.50;89.02;98902.59;5069757;28;20041;-66
2022/12/11 03:53:33;;;;;;;20.73;19.73;;;;;;;8.46;89.20;98895.19;5069090;28;20048;-66
2022/12/11 03:56:03;;;;;;;19.70;18.75;;;;;;;8.44;89.21;98898.25;5071300;28;20051;-66
2022/12/11 03:58:30;;;;;;;20.73;19.83;;;;;;;8.40;89.52;98894.44;5078546;28;20044;-66
2022/12/11 04:00:57;;;;;;;20.10;19.20;;;;;;;8.49;89.39;98916.84;5066426;28;20449;-66
2022/12/11 04:03:24;;;;;;;21.60;20.70;;;;;;;8.49;89.61;98911.28;5073880;28;20056;-66
2022/12/11 04:05:52;;;;;;;20.40;19.47;;;;;;;8.57;89.67;98907.75;5074832;28;20422;-66
2022/12/11 04:08:19;;;;;;;20.33;19.43;;;;;;;8.55;89.78;98879.44;5071151;28;20080;-66
2022/12/11 04:10:47;;;;;;;20.93;20.03;;;;;;;8.59;89.75;98882.44;5071780;28;20056;-66
2022/12/11 04:13:14;;;;;;;20.57;19.57;;;;;;;8.49;89.94;98875.09;5067237;28;20053;-66
2022/12/11 04:15:41;;;;;;;19.80;19.00;;;;;;;8.49;89.84;98864.78;5067551;28;20049;-66
2022/12/11 04:26:26;;;;;;;19.67;18.87;;;;;;;8.50;90.65;98837.78;5073390;28;20486;-65
2022/12/11 04:28:53;;;;;;;19.30;18.50;;;;;;;8.56;90.47;98836.56;5070918;28;20044;-66
2022/12/11 04:31:21;;;;;;;19.40;18.60;;;;;;;8.60;90.31;98822.84;5067944;28;20494;-66
2022/12/11 04:33:49;;;;;;;19.37;18.57;;;;;;;8.57;90.21;98832.63;5076087;28;20076;-66
2022/12/11 04:36:16;;;;;;;42.30;40.63;;;;;;;8.51;90.28;98831.94;5056277;28;20141;-65
2022/12/11 04:38:43;;;;;;;18.90;18.10;;;;;;;8.51;90.27;98851.41;5054321;28;20193;-66
2022/12/11 04:41:12;;;;;;;19.10;18.30;;;;;;;8.52;90.33;98832.75;5053342;28;20044;-66
2022/12/11 04:43:39;;;;;;;19.35;18.55;;;;;;;8.42;90.17;98814.31;5071028;28;20044;-67
2022/12/11 04:46:07;;;;;;;19.60;18.80;;;;;;;8.56;90.18;98830.19;5050737;28;20055;-66
2022/12/11 04:48:35;;;;;;;18.93;18.03;;;;;;;8.59;90.12;98840.69;5059443;28;20440;-65
2022/12/11 04:51:02;;;;;;;18.93;18.13;;;;;;;8.60;90.19;98843.16;5065505;28;20051;-65
2022/12/11 04:53:30;;;;;;;18.77;17.97;;;;;;;8.57;90.41;98810.38;5069980;28;20411;-66
2022/12/11 04:55:57;;;;;;;19.63;18.73;;;;;;;8.57;90.50;98815.94;5078023;28;20139;-66
2022/12/11 04:58:24;;;;;;;19.77;18.97;;;;;;;8.68;90.51;98814.63;5064140;28;20045;-65
2022/12/11 05:00:52;;;;;;;19.57;18.77;;;;;;;8.69;90.28;98823.78;5073915;28;20056;-66
2022/12/11 05:03:19;;;;;;;20.27;19.47;;;;;;;8.71;90.48;98813.16;5074973;28;20044;-65
2022/12/11 05:05:50;;;;;;;18.93;18.13;;;;;;;8.72;90.24;98796.16;5054182;28;20055;-66
2022/12/11 05:08:20;;;;;;;20.07;19.17;;;;;;;8.65;90.17;98787.41;5056612;28;20044;-65
2022/12/11 05:10:58;;;;;;;19.13;18.33;;;;;;;8.42;89.77;98780.09;5074732;28;20045;-66
2022/12/11 05:13:27;;;;;;;19.13;18.33;;;;;;;8.47;90.25;98780.81;5074186;28;20052;-66
2022/12/11 05:15:54;;;;;;;19.80;19.00;;;;;;;8.54;90.44;98791.53;5069990;28;20040;-66
2022/12/11 05:18:21;;;;;;;19.47;18.67;;;;;;;8.64;90.50;98788.53;5071290;28;20049;-66
2022/12/11 05:21:06;;;;;;;19.47;18.67;;;;;;;8.66;90.48;98780.69;5093054;28;20060;-66
2022/12/11 05:23:33;;;;;;;19.50;18.70;;;;;;;8.73;90.53;98786.66;5088297;28;20040;-65
2022/12/11 05:26:06;;;;;;;19.50;18.70;;;;;;;8.70;90.46;98781.72;5094334;28;20076;-66
2022/12/11 05:28:35;;;;;;;20.03;19.23;;;;;;;8.59;90.47;98768.34;5089009;28;20494;-66
2022/12/11 05:31:10;;;;;;;19.80;19.00;;;;;;;8.58;90.38;98773.09;5090158;28;20059;-65
2022/12/11 05:33:37;;;;;;;32.07;30.77;;;;;;;8.51;90.62;98767.09;5103859;28;20072;-66
2022/12/11 05:36:06;;;;;;;19.33;18.53;;;;;;;8.59;90.79;98766.38;5095445;28;20095;-65
2022/12/11 05:38:32;;;;;;;30.43;29.20;;;;;;;8.69;90.82;98774.53;5087673;28;20052;-66
2022/12/11 05:41:03;;;;;;;20.33;19.47;;;;;;;8.69;90.83;98757.81;5103060;28;20055;-65
2022/12/11 05:43:32;;;;;;;21.60;20.70;;;;;;;8.71;90.93;98766.66;5079920;28;20052;-66
2022/12/11 05:46:07;;;;;;;20.57;19.77;;;;;;;8.63;90.25;98759.06;5094540;28;20062;-66
2022/12/11 05:48:38;;;;;;;20.27;19.37;;;;;;;8.61;90.53;98768.84;5091078;28;20418;-66
2022/12/11 05:51:07;;;;;;;21.10;20.20;;;;;;;8.65;90.89;98761.50;5090755;28;20048;-66
2022/12/11 05:53:35;;;;;;;29.80;28.60;;;;;;;8.71;90.62;98765.84;5091743;28;20078;-66
2022/12/11 05:56:09;;;;;;;31.43;30.13;;;;;;;8.76;90.89;98774.09;5093755;28;20052;-66
2022/12/11 05:58:35;;;;;;;20.10;19.30;;;;;;;8.79;91.06;98773.47;5075083;28;20048;-66
2022/12/11 06:01:08;;;;;;;20.43;19.53;;;;;;;8.90;91.05;98771.28;5098119;28;20055;-65
2022/12/11 06:03:34;;;;;;;20.50;19.60;;;;;;;8.94;90.95;98775.91;5085170;28;20410;-65
2022/12/11 06:06:02;;;;;;;20.53;19.63;;;;;;;8.95;90.83;98769.19;5089726;28;20063;-65
2022/12/11 06:08:29;;;;;;;20.87;19.97;;;;;;;8.99;90.72;98778.59;5095769;28;20047;-65
2022/12/11 06:10:57;;;;;;;20.10;19.30;;;;;;;8.96;90.33;98767.25;5088954;28;20040;-66
2022/12/11 06:13:24;;;;;;;22.90;22.00;;;;;;;8.95;90.28;98773.94;5086784;28;20048;-65
2022/12/11 06:15:51;;;;;;;20.60;19.70;;;;;;;8.98;90.54;98776.09;5101734;28;20048;-65
2022/12/11 06:18:18;;;;;;;21.13;20.23;;;;;;;8.98;90.91;98768.56;5101028;28;20070;-66
2022/12/11 06:20:45;;;;;;;20.77;19.97;;;;;;;8.99;90.51;98766.59;5073462;28;20064;-66
2022/12/11 06:23:12;;;;;;;20.20;19.40;;;;;;;9.01;90.35;98775.47;5061650;28;20449;-66
2022/12/11 06:25:39;;;;;;;21.27;20.37;;;;;;;9.03;90.14;98778.78;5069609;28;20048;-66
2022/12/11 06:28:06;;;;;;;21.53;20.53;;;;;;;8.93;90.16;98768.69;5074851;28;20052;-66
2022/12/11 06:30:33;;;;;;;20.10;19.30;;;;;;;9.03;90.44;98778.78;5072650;28;20494;-66
2022/12/11 06:33:05;;;;;;;19.63;18.83;;;;;;;9.07;90.46;98768.66;5073851;28;20059;-65
2022/12/11 06:35:32;;;;;;;19.70;18.90;;;;;;;9.16;90.66;98780.69;5079498;28;20049;-66
2022/12/11 06:38:07;;;;;;;20.20;19.40;;;;;;;9.16;90.43;98775.13;5071810;28;20060;-66
2022/12/11 06:40:34;;;;;;;19.60;18.80;;;;;;;8.98;90.44;98765.78;5080886;28;20044;-66
2022/12/11 06:43:00;;;;;;;19.67;18.87;;;;;;;9.11;90.25;98805.03;5080527;28;20471;-67
2022/12/11 06:45:27;;;;;;;19.60;18.80;;;;;;;8.95;90.13;98783.09;5073704;28;20054;-66
2022/12/11 06:47:54;;;;;;;18.97;18.17;;;;;;;9.00;89.92;98804.47;5079595;28;20093;-66
2022/12/11 06:50:21;;;;;;;20.00;19.20;;;;;;;9.06;90.22;98811.56;5063902;28;20048;-66
2022/12/11 06:52:47;;;;;;;20.07;19.27;;;;;;;9.09;90.25;98810.91;5051502;28;20055;-66
2022/12/11 06:55:15;;;;;;;20.10;19.30;;;;;;;9.01;90.06;98811.66;5067303;28;20059;-66
2022/12/11 06:57:41;;;;;;;18.90;18.10;;;;;;;9.02;90.28;98821.66;5066208;28;20041;-66
2022/12/11 07:00:09;;;;;;;20.33;19.33;;;;;;;8.96;90.17;98820.97;5067523;28;20050;-66
2022/12/11 07:02:35;;;;;;;21.13;20.23;;;;;;;8.97;90.27;98830.97;5065279;28;20053;-66
2022/12/11 07:05:03;;;;;;;19.77;18.97;;;;;;;9.00;90.29;98823.94;5071705;28;20059;-65
2022/12/11 07:07:29;;;;;;;21.10;20.20;;;;;;;8.97;90.59;98824.56;5065084;28;20484;-65
2022/12/11 07:09:57;;;;;;;19.90;19.10;;;;;;;9.00;90.21;98819.19;5046448;28;20045;-65
2022/12/11 07:12:32;;;;;;;20.53;19.63;;;;;;;8.97;90.36;98813.44;5074957;28;20145;-65
2022/12/11 07:14:59;;;;;;;20.67;19.77;;;;;;;8.90;90.45;98807.47;5051482;28;20056;-65
2022/12/11 07:17:28;;;;;;;20.10;19.20;;;;;;;8.73;90.20;98792.22;5072906;28;20040;-64
2022/12/11 07:19:55;;;;;;;21.00;20.10;;;;;;;8.60;90.49;98798.63;5075116;28;20088;-65
2022/12/11 07:22:22;;;;;;;21.43;20.53;;;;;;;8.57;90.57;98799.25;5072767;28;20059;-65
2022/12/11 07:24:49;;;;;;;20.40;19.50;;;;;;;8.44;90.87;98780.59;5076650;28;20056;-65
2022/12/11 07:27:15;;;;;;;22.50;21.50;;;;;;;8.52;90.75;98804.94;5071177;28;20048;-65
2022/12/11 07:29:43;;;;;;;22.63;21.63;;;;;;;8.62;90.79;98807.50;5074234;28;20051;-65
2022/12/11 07:32:10;;;;;;;21.93;20.93;;;;;;;8.72;90.69;98812.84;5076593;28;20056;-66
2022/12/11 07:34:37;;;;;;;23.57;22.57;;;;;;;8.74;90.80;98827.28;5080256;28;20048;-65
2022/12/11 07:37:04;;;;;;;22.87;21.87;;;;;;;8.83;90.96;98823.78;5068801;28;20044;-65
2022/12/11 07:39:31;;;;;;;22.97;21.97;;;;;;;8.85;90.92;98827.06;5081143;28;20052;-65
2022/12/11 07:41:58;;;;;;;22.10;21.10;;;;;;;8.94;90.88;98837.16;5075745;28;20044;-65
2022/12/11 07:44:25;;;;;;;25.03;23.97;;;;;;;9.02;90.87;98855.91;5075211;28;20044;-65
2022/12/11 07:46:51;;;;;;;21.33;20.43;;;;;;;9.04;91.24;98863.94;5073120;28;20051;-65
2022/12/11 07:49:18;;;;;;;22.30;21.30;;;;;;;9.19;91.03;98868.34;5071663;28;20056;-65
2022/12/11 07:51:45;;;;;;;24.30;23.20;;;;;;;9.30;91.05;98874.50;5075432;28;20048;-65
2022/12/11 07:54:15;;;;;;;23.00;21.90;;;;;;;9.38;90.87;98877.38;5071093;28;20048;-65
2022/12/11 07:56:43;;;;;;;26.25;25.05;;;;;;;9.43;91.07;98887.59;5071961;28;20048;-65
2022/12/11 07:59:18;;;;;;;26.27;25.07;;;;;;;9.48;91.12;98906.97;5074244;28;20051;-64
2022/12/11 08:01:45;;;;;;;57.10;54.73;;;;;;;9.54;91.32;98897.38;5066242;28;20044;-65
2022/12/11 08:04:14;;;;;;;24.93;23.83;;;;;;;9.67;91.49;98902.06;5072369;28;20075;-65
2022/12/11 08:06:42;;;;;;;25.75;24.50;;;;;;;9.73;91.35;98900.81;5058799;28;20072;-65
2022/12/11 08:09:11;;;;;;;23.83;22.83;;;;;;;9.71;91.05;98900.31;5068099;28;20488;-65
2022/12/11 08:11:49;;;;;;;28.73;27.53;;;;;;;9.71;90.95;98911.47;5069374;28;20056;-65
2022/12/11 08:14:16;;;;;;;33.30;31.90;;;;;;;9.73;91.18;98919.50;5076237;28;20557;-65
2022/12/11 08:16:46;;;;;;;24.17;23.13;;;;;;;9.64;90.67;98910.22;5067254;28;20055;-65
2022/12/11 08:19:13;;;;;;;24.40;23.40;;;;;;;9.65;90.95;98923.84;5064511;28;20128;-66
2022/12/11 08:21:40;;;;;;;25.57;24.47;;;;;;;9.69;90.77;98935.22;5086145;28;20044;-64
2022/12/11 08:24:07;;;;;;;21.03;20.03;;;;;;;9.68;90.75;98934.38;5054139;28;20051;-65
2022/12/11 08:26:35;;;;;;;21.30;20.30;;;;;;;9.75;90.73;98933.94;5070364;28;20494;-66
2022/12/11 08:29:02;;;;;;;20.83;19.83;;;;;;;9.82;90.99;98936.31;5054619;28;20079;-64
2022/12/11 08:31:29;;;;;;;21.10;20.20;;;;;;;9.83;90.85;98937.94;5068151;28;20495;-65
2022/12/11 08:33:56;;;;;;;20.73;19.83;;;;;;;9.85;90.81;98938.47;5071040;28;20048;-65
2022/12/11 08:36:24;;;;;;;21.50;20.50;;;;;;;9.91;90.71;98945.53;5055428;28;20052;-66
2022/12/11 08:38:54;;;;;;;20.97;20.07;;;;;;;9.95;90.78;98946.59;5074944;28;20048;-65
2022/12/11 08:41:24;;;;;;;20.23;19.33;;;;;;;9.86;90.23;98934.53;5066524;28;20491;-66
2022/12/11 08:43:53;;;;;;;20.70;19.80;;;;;;;9.77;89.88;98931.66;5067023;28;20049;-66
2022/12/11 08:46:25;;;;;;;20.57;19.67;;;;;;;9.63;89.75;98948.41;5069689;28;20051;-64
2022/12/11 08:48:54;;;;;;;21.53;20.63;;;;;;;9.62;89.89;98957.09;5056937;28;20477;-65
2022/12/11 08:51:23;;;;;;;20.50;19.60;;;;;;;9.57;90.06;98972.00;5075972;28;20079;-66
2022/12/11 08:53:50;;;;;;;44.80;42.97;;;;;;;9.53;90.35;98987.66;5074882;28;20059;-64
2022/12/11 08:56:19;;;;;;;21.10;20.10;;;;;;;9.59;90.34;98986.41;5074960;28;20499;-64
2022/12/11 08:58:46;;;;;;;20.73;19.83;;;;;;;9.60;90.74;98990.84;5083679;28;20063;-65
2022/12/11 09:01:21;;;;;;;20.50;19.60;;;;;;;9.55;90.96;98985.41;5083742;28;20040;-65
2022/12/11 09:03:49;;;;;;;21.10;20.10;;;;;;;9.53;91.35;98982.09;5073181;28;20045;-65
2022/12/11 09:06:19;;;;;;;21.63;20.53;;;;;;;9.51;91.38;98976.03;5071763;28;20075;-65
2022/12/11 09:08:48;;;;;;;21.38;20.38;;;;;;;9.53;91.90;98981.28;5074274;28;20054;-65
2022/12/11 09:11:25;;;;;;;20.83;19.93;;;;;;;9.44;92.04;98978.41;5074461;28;20049;-64
2022/12/11 09:13:51;;;;;;;21.27;20.30;;;;;;;9.42;92.16;98973.13;5074173;28;20573;-65
2022/12/11 09:16:21;;;;;;;22.13;21.03;;;;;;;9.50;92.39;98988.28;5074675;28;20051;-65
2022/12/11 09:18:50;;;;;;;22.20;21.20;;;;;;;9.52;92.51;98986.03;5071484;28;20155;-65
2022/12/11 09:21:20;;;;;;;22.23;21.23;;;;;;;9.47;92.73;98989.75;5038433;28;20274;-65
2022/12/11 09:23:48;;;;;;;22.17;21.17;;;;;;;9.46;93.00;98987.25;5068636;28;20056;-64
2022/12/11 09:26:18;;;;;;;22.50;21.50;;;;;;;9.45;92.90;99002.34;5080637;28;20048;-64
2022/12/11 09:28:45;;;;;;;;;;;;;;;9.29;93.36;99012.16;5075576;28;20064;-65
2022/12/11 09:31:19;;;;;;;21.97;20.97;;;;;;;9.39;93.71;99009.16;5073096;28;19920;-65
2022/12/11 09:33:46;;;;;;;21.83;20.83;;;;;;;9.42;93.78;99008.53;5069729;28;20048;-65
2022/12/11 09:36:13;;;;;;;21.67;20.67;;;;;;;9.47;93.78;99025.16;5073838;28;20044;-65
2022/12/11 09:38:42;;;;;;;23.37;22.27;;;;;;;9.49;94.06;99028.44;5063099;28;20051;-65
2022/12/11 09:41:21;;;;;;;22.58;21.48;;;;;;;9.43;93.91;99033.28;5065918;28;20424;-64
2022/12/11 09:44:07;;;;;;;22.17;21.17;;;;;;;9.44;93.96;99039.72;5052710;28;20044;-65
2022/12/11 09:46:36;;;;;;;22.50;21.40;;;;;;;9.44;93.91;99036.91;5071558;28;22351;-65
2022/12/11 09:49:08;;;;;;;22.10;21.00;;;;;;;9.58;94.44;99039.69;5074207;28;20297;-65
2022/12/11 09:51:41;;;;;;;22.27;21.27;;;;;;;9.70;94.30;99046.38;5064528;28;20402;-64
2022/12/11 09:54:12;;;;;;;21.87;20.80;;;;;;;9.77;94.21;99043.16;5074776;28;20137;-64
2022/12/11 09:56:58;;;;;;;32.77;31.27;;;;;;;9.82;94.03;99045.84;5056020;28;20529;-64
2022/12/11 09:59:24;;;;;;;22.00;21.00;;;;;;;9.97;94.38;99058.63;5076940;28;20398;-64
2022/12/11 10:02:42;;;;;;;28.03;26.73;;;;;;;9.94;94.05;99053.66;5080489;28;20392;-65
2022/12/11 10:05:27;;;;;;;41.90;40.07;;;;;;;10.15;94.53;99071.63;4978500;28;20077;-65
2022/12/11 10:08:04;;;;;;;23.40;22.20;;;;;;;10.18;94.38;99084.09;5081869;28;20059;-65
2022/12/11 10:10:46;;;;;;;22.50;21.40;;;;;;;10.24;94.19;99095.97;5071068;28;20049;-65
2022/12/11 10:13:34;;;;;;;22.00;20.90;;;;;;;10.30;94.40;99117.91;5049870;28;20495;-65
2022/12/11 10:16:11;;;;;;;22.10;21.00;;;;;;;10.43;94.46;99127.38;5068459;28;20056;-63
2022/12/11 10:18:39;;;;;;;42.20;40.27;;;;;;;10.48;94.54;99135.63;5048651;28;20052;-65
2022/12/11 10:21:06;;;;;;;22.10;21.00;;;;;;;10.45;94.31;99130.66;5072579;28;20040;-64
2022/12/11 10:23:49;;;;;;;21.60;20.50;;;;;;;10.51;94.19;99151.72;5071614;28;20048;-64
2022/12/11 10:26:19;;;;;;;22.13;21.03;;;;;;;10.55;94.17;99136.00;5081723;28;20049;-65
2022/12/11 10:28:47;;;;;;;22.30;21.20;;;;;;;10.55;94.25;99137.97;5072220;28;20434;-65
2022/12/11 10:31:18;;;;;;;21.70;20.50;;;;;;;10.58;94.13;99149.34;5067486;28;20045;-64
2022/12/11 10:34:02;;;;;;;21.43;20.30;;;;;;;10.52;93.74;99135.81;5066190;28;20058;-64
2022/12/11 10:36:35;;;;;;;38.17;35.43;;;;;;;10.55;93.79;99140.75;5074658;28;20247;-64
2022/12/11 10:39:09;;;;;;;23.33;22.03;;;;;;;10.50;93.84;99138.94;5055782;28;20053;-64
2022/12/11 10:41:39;;;;;;;22.60;21.40;;;;;;;10.42;93.59;99142.44;5084748;28;20048;-65
2022/12/11 10:44:16;;;;;;;21.75;20.55;;;;;;;10.26;93.30;99166.28;5072312;28;20421;-65
2022/12/11 10:46:44;;;;;;;22.50;21.20;;;;;;;10.20;93.42;99163.53;5075397;28;20418;-64
2022/12/11 10:49:25;;;;;;;22.30;21.10;;;;;;;10.14;93.62;99159.22;5071484;28;20086;-64
2022/12/11 10:51:54;;;;;;;23.20;21.90;;;;;;;10.27;94.09;99165.94;5068177;28;20407;-64
2022/12/11 10:54:37;;;;;;;22.37;21.17;;;;;;;10.28;93.90;99172.34;5071788;28;20051;-64
2022/12/11 10:57:06;;;;;;;22.87;21.57;;;;;;;10.29;94.19;99177.63;5079019;28;20059;-64
2022/12/11 10:59:38;;;;;;;25.27;23.87;;;;;;;10.31;93.89;99196.84;5085227;28;20463;-64
2022/12/11 11:02:17;;;;;;;23.30;21.97;;;;;;;10.21;93.91;99187.50;5092984;28;20381;-64
2022/12/11 11:04:44;;;;;;;23.77;22.37;;;;;;;10.24;94.08;99193.63;5067017;28;20581;-64
2022/12/11 11:07:21;;;;;;;23.07;21.83;;;;;;;10.18;93.77;99199.28;5072587;28;20103;-64
2022/12/11 11:09:48;;;;;;;30.90;28.43;;;;;;;10.13;94.09;99198.59;5071674;28;20059;-64
2022/12/11 11:12:20;;;;;;;24.17;22.67;;;;;;;10.14;94.16;99208.59;5079031;28;20384;-63
2022/12/11 11:14:58;;;;;;;27.73;25.93;;;;;;;10.13;94.09;99216.16;5077553;28;20051;-64
2022/12/11 11:17:25;;;;;;;26.10;24.40;;;;;;;10.26;94.64;99210.91;5067841;28;20051;-64
2022/12/11 11:20:11;;;;;;;25.53;23.93;;;;;;;10.36;94.71;99205.13;5065280;28;20088;-64
2022/12/11 11:22:44;;;;;;;26.53;24.73;;;;;;;10.48;95.13;99194.22;5051117;28;20056;-64
2022/12/11 11:25:16;;;;;;;25.33;23.73;;;;;;;10.73;95.18;99194.78;5070335;28;20479;-63
2022/12/11 11:27:48;;;;;;;25.30;23.70;;;;;;;10.90;95.32;99186.53;5057793;28;20055;-65
2022/12/11 11:30:25;;;;;;;24.80;23.20;;;;;;;11.01;95.32;99181.53;5069817;28;20040;-64
2022/12/11 11:33:18;;;;;;;22.50;21.13;;;;;;;10.78;93.87;99197.47;5075274;28;20048;-63
2022/12/11 11:35:55;;;;;;;25.20;23.60;;;;;;;10.54;94.20;99189.38;5061988;28;20418;-63
2022/12/11 11:38:46;;;;;;;24.07;22.47;;;;;;;10.53;94.14;99194.13;5071032;28;20056;-63
2022/12/11 11:41:19;;;;;;;24.77;23.27;;;;;;;10.57;94.08;99189.56;5077152;28;20490;-63
2022/12/11 11:43:58;;;;;;;24.50;22.80;;;;;;;10.52;94.33;99181.28;5066467;28;20051;-64
2022/12/11 11:46:27;;;;;;;25.97;24.03;;;;;;;10.62;94.46;99197.81;5068701;28;20483;-64
2022/12/11 11:49:43;;;;;;;25.98;24.23;;;;;;;10.61;94.58;99206.50;5071400;28;20059;-64
2022/12/11 11:52:36;;;;;;;41.73;39.17;;;;;;;10.63;94.62;99220.97;5057309;28;20053;-64